Time;durP1;ratioP1;P1;durP2;ratioP2;P2;SDS_P1;SDS_P2;PMS_P1;PMS_P2;Temp;Humidity;BMP_temperature;BMP_pressure;BME280_temperature;BME280_humidity;BME280_pressure;Samples;Min_cycle;Max_cycle;Signal;HPM_P1;HPM_P2
2022/11/12 00:01:12;;;;;;;10.60;5.03;;;8.00;99.90;;;;;;5025375;28;20560;-69
2022/11/12 00:03:38;;;;;;;12.10;4.95;;;8.00;99.90;;;;;;5024317;28;20061;-69
2022/11/12 00:06:03;;;;;;;12.23;4.88;;;8.00;99.90;;;;;;5025463;28;20534;-70
2022/11/12 00:08:29;;;;;;;13.27;6.35;;;7.90;99.90;;;;;;5025277;28;20049;-69
2022/11/12 00:10:54;;;;;;;13.15;4.80;;;7.90;99.90;;;;;;5025080;28;20037;-69
2022/11/12 00:13:20;;;;;;;11.90;5.53;;;7.90;99.90;;;;;;5025075;28;20041;-69
2022/11/12 00:15:46;;;;;;;10.25;4.80;;;7.90;99.90;;;;;;5015875;28;20133;-70
2022/11/12 00:18:11;;;;;;;13.48;4.97;;;7.80;99.90;;;;;;5025134;28;20072;-69
2022/11/12 00:20:37;;;;;;;9.32;5.07;;;7.80;99.90;;;;;;5024775;28;20053;-69
2022/11/12 00:23:03;;;;;;;9.35;4.47;;;7.80;99.90;;;;;;5025139;28;20099;-69
2022/11/12 00:25:28;;;;;;;8.27;4.88;;;7.80;99.90;;;;;;5025297;28;20119;-70
2022/11/12 00:28:03;;;;;;;8.02;4.35;;;7.70;99.90;;;;;;5012924;28;20045;-69
2022/11/12 00:30:29;;;;;;;12.00;5.10;;;7.70;99.90;;;;;;5021449;28;20041;-69
2022/11/12 00:32:55;;;;;;;11.23;4.97;;;7.70;99.90;;;;;;5023515;28;20041;-70
2022/11/12 00:35:20;;;;;;;14.88;6.18;;;7.70;99.90;;;;;;5024989;28;20099;-70
2022/11/12 00:37:46;;;;;;;10.48;4.90;;;7.70;99.90;;;;;;5024654;28;20041;-70
2022/11/12 00:40:12;;;;;;;13.25;4.93;;;7.70;99.90;;;;;;5026724;28;20389;-71
2022/11/12 00:42:37;;;;;;;10.63;5.13;;;7.70;99.90;;;;;;5026208;28;20096;-70
2022/11/12 00:45:03;;;;;;;10.88;4.93;;;7.70;99.90;;;;;;5023281;28;20034;-69
2022/11/12 00:47:29;;;;;;;8.95;5.05;;;7.70;99.90;;;;;;5023580;28;20080;-70
2022/11/12 00:49:54;;;;;;;14.40;5.13;;;7.60;99.90;;;;;;5024209;28;20432;-69
2022/11/12 00:52:20;;;;;;;11.40;4.68;;;7.60;99.90;;;;;;5025218;28;20042;-71
2022/11/12 00:54:45;;;;;;;11.75;5.50;;;7.60;99.90;;;;;;5024358;28;20394;-69
2022/11/12 00:57:11;;;;;;;10.75;5.15;;;7.60;99.90;;;;;;5027569;28;20136;-68
2022/11/12 00:59:36;;;;;;;9.65;5.32;;;7.60;99.90;;;;;;5027799;28;20037;-69
2022/11/12 01:02:02;;;;;;;12.50;5.53;;;7.60;99.90;;;;;;5028865;28;20084;-69
2022/11/12 01:04:27;;;;;;;9.85;5.25;;;7.60;99.90;;;;;;5028205;28;20053;-69
2022/11/12 01:06:53;;;;;;;10.63;5.60;;;7.60;99.90;;;;;;5026564;28;20577;-69
2022/11/12 01:09:19;;;;;;;12.57;6.10;;;7.60;99.90;;;;;;5029172;28;20033;-69
2022/11/12 01:11:44;;;;;;;11.07;6.20;;;7.60;99.90;;;;;;5028011;28;20068;-70
2022/11/12 01:14:10;;;;;;;13.63;5.97;;;7.60;99.90;;;;;;5027925;28;20095;-71
2022/11/12 01:16:38;;;;;;;14.55;5.68;;;7.60;99.90;;;;;;5027530;28;20029;-72
2022/11/12 01:19:07;;;;;;;13.35;5.90;;;7.60;99.90;;;;;;5026322;28;20040;-71
2022/11/12 01:21:38;;;;;;;12.73;5.22;;;7.60;99.90;;;;;;5028045;28;20399;-71
2022/11/12 01:24:04;;;;;;;10.75;5.55;;;7.70;99.90;;;;;;5025836;28;20033;-73
2022/11/12 01:26:30;;;;;;;11.52;5.45;;;7.70;99.90;;;;;;5027389;28;20033;-70
2022/11/12 01:28:56;;;;;;;14.57;5.20;;;7.60;99.90;;;;;;5025973;28;20045;-68
2022/11/12 01:31:36;;;;;;;10.75;5.47;;;7.60;99.90;;;;;;5020109;28;20117;-70
2022/11/12 01:34:07;;;;;;;9.07;5.68;;;7.60;99.90;;;;;;5024245;28;20433;-70
2022/11/12 01:36:38;;;;;;;12.63;5.82;;;7.70;99.90;;;;;;5027744;28;20490;-69
2022/11/12 01:39:05;;;;;;;11.80;6.45;;;7.80;99.90;;;;;;5027964;28;20037;-69
2022/11/12 01:41:35;;;;;;;10.38;5.60;;;7.90;99.90;;;;;;5027527;28;20025;-70
2022/11/12 01:44:12;;;;;;;13.27;5.97;;;7.90;99.90;;;;;;5026585;28;20037;-69
2022/11/12 01:47:02;;;;;;;12.20;5.55;;;8.00;99.90;;;;;;5025684;28;20045;-69
2022/11/12 01:49:34;;;;;;;13.90;6.70;;;8.10;99.90;;;;;;5009974;28;20029;-68
2022/11/12 01:52:11;;;;;;;12.50;5.68;;;8.10;99.90;;;;;;5027940;28;20038;-70
2022/11/12 01:54:38;;;;;;;10.40;6.25;;;8.10;99.90;;;;;;5025656;28;20037;-71
2022/11/12 01:57:04;;;;;;;10.30;6.13;;;8.20;99.90;;;;;;5026318;28;20041;-69
2022/11/12 01:59:34;;;;;;;15.82;6.43;;;8.20;99.90;;;;;;5026654;28;20031;-70
2022/11/12 02:02:00;;;;;;;;;;;8.20;99.90;;;;;;5028048;28;20041;-71
2022/11/12 02:04:27;;;;;;;10.77;6.03;;;8.30;99.90;;;;;;5025672;28;19928;-69
2022/11/12 02:06:55;;;;;;;11.48;5.38;;;8.30;99.90;;;;;;5024264;28;20095;-71
2022/11/12 02:09:20;;;;;;;12.88;5.78;;;8.30;99.90;;;;;;5024102;28;20034;-70
2022/11/12 02:11:46;;;;;;;12.52;6.07;;;8.40;99.90;;;;;;5025853;28;20052;-70
2022/11/12 02:14:12;;;;;;;11.80;5.50;;;8.40;99.90;;;;;;5025419;28;20543;-69
2022/11/12 02:16:37;;;;;;;13.40;6.63;;;8.40;99.90;;;;;;5026240;28;20385;-70
2022/11/12 02:19:06;;;;;;;15.38;6.28;;;8.40;99.90;;;;;;5025894;28;20042;-69
2022/11/12 02:21:32;;;;;;;11.25;5.55;;;8.40;99.90;;;;;;5024744;28;20053;-72
2022/11/12 02:23:58;;;;;;;9.98;5.60;;;8.50;99.90;;;;;;5024531;28;20048;-69
2022/11/12 02:26:25;;;;;;;11.93;5.80;;;8.50;99.90;;;;;;5025679;28;20905;-70
2022/11/12 02:28:51;;;;;;;13.32;5.35;;;8.50;99.90;;;;;;5026110;28;20445;-69
2022/11/12 02:31:16;;;;;;;12.63;5.72;;;8.50;99.90;;;;;;5026755;28;20025;-69
2022/11/12 02:33:42;;;;;;;11.95;5.18;;;8.50;99.90;;;;;;5025090;28;20128;-69
2022/11/12 02:36:07;;;;;;;10.35;6.03;;;8.50;99.90;;;;;;5025851;28;20049;-70
2022/11/12 02:38:33;;;;;;;13.68;5.50;;;8.50;99.90;;;;;;5024969;28;20029;-69
2022/11/12 02:40:58;;;;;;;13.43;6.00;;;8.60;99.90;;;;;;5026027;28;20041;-70
2022/11/12 02:43:24;;;;;;;14.02;6.00;;;8.50;99.90;;;;;;5024927;28;20112;-70
2022/11/12 02:45:50;;;;;;;11.52;5.90;;;8.60;99.90;;;;;;5025212;28;20068;-69
2022/11/12 02:48:15;;;;;;;9.75;5.10;;;8.60;99.90;;;;;;5025392;28;20048;-69
2022/11/12 02:50:41;;;;;;;17.05;7.13;;;8.60;99.90;;;;;;5025977;28;20538;-68
2022/11/12 02:53:06;;;;;;;18.80;7.65;;;8.60;99.90;;;;;;5024949;28;20120;-68
2022/11/12 02:55:32;;;;;;;17.95;6.63;;;8.70;99.90;;;;;;5025995;28;20041;-71
2022/11/12 02:57:58;;;;;;;12.93;6.80;;;8.70;99.90;;;;;;5024783;28;20034;-70
2022/11/12 03:00:24;;;;;;;12.23;5.78;;;8.70;99.90;;;;;;5026637;28;20847;-70
2022/11/12 03:02:58;;;;;;;12.50;6.18;;;8.70;99.90;;;;;;5025975;28;20065;-69
2022/11/12 03:05:26;;;;;;;10.93;5.65;;;8.70;99.90;;;;;;5022247;28;20057;-71
2022/11/12 03:08:00;;;;;;;16.23;6.15;;;8.70;99.90;;;;;;5025609;28;20048;-69
2022/11/12 03:10:26;;;;;;;12.68;5.72;;;8.70;99.90;;;;;;5024925;28;20111;-68
2022/11/12 03:12:53;;;;;;;14.68;6.65;;;8.60;99.90;;;;;;5025165;28;20107;-69
2022/11/12 03:15:19;;;;;;;14.75;6.40;;;8.70;99.90;;;;;;5026247;28;20041;-68
2022/11/12 03:17:44;;;;;;;11.65;5.80;;;8.60;99.90;;;;;;5019655;28;20043;-69
2022/11/12 03:20:11;;;;;;;11.52;5.97;;;8.60;99.90;;;;;;5026039;28;20029;-69
2022/11/12 03:22:39;;;;;;;14.55;6.93;;;8.60;99.90;;;;;;5025017;28;20041;-71
2022/11/12 03:25:06;;;;;;;12.30;6.22;;;8.70;99.90;;;;;;5025638;28;20033;-69
2022/11/12 03:27:32;;;;;;;14.57;6.53;;;8.60;99.90;;;;;;5025757;28;20072;-70
2022/11/12 03:29:57;;;;;;;11.75;5.85;;;8.70;99.90;;;;;;5024782;28;20386;-70
2022/11/12 03:32:23;;;;;;;14.48;6.22;;;8.60;99.90;;;;;;5025576;28;20823;-68
2022/11/12 03:34:49;;;;;;;12.48;6.20;;;8.60;99.90;;;;;;5024554;28;20037;-70
2022/11/12 03:37:15;;;;;;;11.77;6.05;;;8.60;99.90;;;;;;5026021;28;20036;-69
2022/11/12 03:39:41;;;;;;;11.20;6.40;;;8.60;99.90;;;;;;5023279;28;20119;-69
2022/11/12 03:42:07;;;;;;;13.77;6.63;;;8.60;99.90;;;;;;5025084;28;20132;-70
2022/11/12 03:44:32;;;;;;;10.15;5.93;;;8.60;99.90;;;;;;5023173;28;20398;-70
2022/11/12 03:46:58;;;;;;;15.88;6.28;;;8.60;99.90;;;;;;5024527;28;20030;-68
2022/11/12 03:49:24;;;;;;;13.23;6.40;;;8.60;99.90;;;;;;5025195;28;20034;-70
2022/11/12 03:51:49;;;;;;;12.27;6.28;;;8.50;99.90;;;;;;5024479;28;20026;-69
2022/11/12 03:54:15;;;;;;;14.68;6.90;;;8.50;99.90;;;;;;5025095;28;20057;-68
2022/11/12 03:56:40;;;;;;;12.70;6.68;;;8.40;99.90;;;;;;5024658;28;20100;-68
2022/11/12 03:59:06;;;;;;;14.60;6.13;;;8.40;99.90;;;;;;5024069;28;20543;-69
2022/11/12 04:01:32;;;;;;;13.60;6.78;;;8.30;99.90;;;;;;5024036;28;20136;-70
2022/11/12 04:03:57;;;;;;;12.55;7.03;;;8.30;99.90;;;;;;5023109;28;20088;-69
2022/11/12 04:09:07;;;;;;;10.90;6.68;;;8.10;99.90;;;;;;5024746;28;20068;-69
2022/11/12 04:11:33;;;;;;;13.93;6.78;;;8.10;99.90;;;;;;5024991;28;20765;-71
2022/11/12 04:13:59;;;;;;;11.98;6.50;;;8.00;99.90;;;;;;5024143;28;20044;-70
2022/11/12 04:22:09;;;;;;;15.57;6.88;;;7.80;99.90;;;;;;5024433;28;20110;-70
2022/11/12 04:27:30;;;;;;;16.45;7.68;;;7.70;99.90;;;;;;5024312;28;20067;-71
2022/11/12 04:32:57;;;;;;;15.05;6.82;;;7.60;99.90;;;;;;5026770;28;20555;-69
2022/11/12 04:35:25;;;;;;;11.02;6.45;;;7.60;99.90;;;;;;5029428;28;20029;-68
2022/11/12 04:37:51;;;;;;;11.35;5.80;;;7.50;99.90;;;;;;5029802;28;20535;-70
2022/11/12 04:45:51;;;;;;;15.18;6.32;;;7.40;99.90;;;;;;5028072;28;20487;-69
2022/11/12 04:48:18;;;;;;;12.23;6.13;;;7.40;99.90;;;;;;5031766;28;20091;-69
2022/11/12 04:50:51;;;;;;;15.85;6.80;;;7.40;99.90;;;;;;5031157;28;20033;-71
2022/11/12 04:53:17;;;;;;;16.13;6.72;;;7.40;99.90;;;;;;5026909;28;20072;-70
2022/11/12 04:55:43;;;;;;;13.25;6.65;;;7.30;99.90;;;;;;5030549;28;20061;-70
2022/11/12 04:58:08;;;;;;;18.10;7.07;;;7.30;99.90;;;;;;5029947;28;20091;-69
2022/11/12 05:00:34;;;;;;;17.08;7.70;;;7.30;99.90;;;;;;5031312;28;20052;-69
2022/11/12 05:02:59;;;;;;;13.65;7.28;;;7.30;99.90;;;;;;5029746;28;20059;-71
2022/11/12 05:05:25;;;;;;;14.00;6.32;;;7.30;99.90;;;;;;5030418;28;20025;-69
2022/11/12 05:07:51;;;;;;;14.40;6.68;;;7.20;99.90;;;;;;5029326;28;20064;-68
2022/11/12 05:10:16;;;;;;;14.65;6.65;;;7.20;99.90;;;;;;5031048;28;20038;-69
2022/11/12 05:12:43;;;;;;;12.60;7.07;;;7.20;99.90;;;;;;5031255;28;20029;-70
2022/11/12 05:15:10;;;;;;;13.90;6.57;;;7.20;99.90;;;;;;5028439;28;20022;-70
2022/11/12 05:17:38;;;;;;;13.05;7.13;;;7.10;99.90;;;;;;5031921;28;20489;-68
2022/11/12 05:20:04;;;;;;;15.55;7.57;;;7.10;99.90;;;;;;5032266;28;20079;-69
2022/11/12 05:22:29;;;;;;;14.57;6.53;;;7.10;99.90;;;;;;5030658;28;20378;-70
2022/11/12 05:24:55;;;;;;;12.98;6.53;;;7.00;99.90;;;;;;5031482;28;20040;-70
2022/11/12 05:27:21;;;;;;;16.83;7.13;;;7.00;99.90;;;;;;5032236;28;20029;-69
2022/11/12 05:29:46;;;;;;;16.52;7.28;;;7.00;99.90;;;;;;5031286;28;20766;-69
2022/11/12 05:32:14;;;;;;;13.82;7.30;;;6.90;99.90;;;;;;5030745;28;20033;-69
2022/11/12 05:34:40;;;;;;;12.02;6.85;;;6.90;99.90;;;;;;5031133;28;20428;-68
2022/11/12 05:37:07;;;;;;;13.88;6.88;;;6.90;99.90;;;;;;5031959;28;20035;-69
2022/11/12 05:39:33;;;;;;;15.02;6.72;;;6.90;99.90;;;;;;5031258;28;20060;-68
2022/11/12 05:41:58;;;;;;;11.32;5.95;;;6.90;99.90;;;;;;5027854;28;20164;-69
2022/11/12 05:44:24;;;;;;;10.18;5.82;;;6.80;99.90;;;;;;5028666;28;20029;-70
2022/11/12 05:46:50;;;;;;;15.48;7.30;;;6.80;99.90;;;;;;5026787;28;20037;-68
2022/11/12 05:49:16;;;;;;;13.57;7.15;;;6.70;99.90;;;;;;5029430;28;20025;-69
2022/11/12 05:51:42;;;;;;;14.02;6.90;;;6.70;99.90;;;;;;5028497;28;20033;-69
2022/11/12 05:54:08;;;;;;;14.63;7.40;;;6.70;99.90;;;;;;5027063;28;20040;-69
2022/11/12 05:56:34;;;;;;;15.43;7.18;;;6.70;99.90;;;;;;5029687;28;20030;-69
2022/11/12 05:59:01;;;;;;;14.32;6.53;;;6.70;99.90;;;;;;5028912;28;20135;-68
2022/11/12 06:01:27;;;;;;;14.63;7.07;;;6.70;99.90;;;;;;5028558;28;20733;-68
2022/11/12 06:03:53;;;;;;;11.13;5.97;;;6.70;99.90;;;;;;5027870;28;20034;-68
2022/11/12 06:06:18;;;;;;;14.55;7.13;;;6.70;99.90;;;;;;5029900;28;20017;-69
2022/11/12 06:08:44;;;;;;;14.82;6.93;;;6.70;99.90;;;;;;5026670;28;20366;-71
2022/11/12 06:11:09;;;;;;;16.13;7.18;;;6.60;99.90;;;;;;5029890;28;20421;-68
2022/11/12 06:13:35;;;;;;;15.73;6.97;;;6.60;99.90;;;;;;5028603;28;20022;-69
2022/11/12 06:16:02;;;;;;;15.45;7.15;;;6.60;99.90;;;;;;5028695;28;20450;-69
2022/11/12 06:18:28;;;;;;;16.20;7.22;;;6.60;99.90;;;;;;5027931;28;20033;-68
2022/11/12 06:23:37;;;;;;;13.90;7.25;;;6.60;99.90;;;;;;5024987;28;20040;-68
2022/11/12 06:26:03;;;;;;;15.70;7.00;;;6.60;99.90;;;;;;5028766;28;20389;-69
2022/11/12 06:28:29;;;;;;;12.45;7.15;;;6.60;99.90;;;;;;5023571;28;20046;-68
2022/11/12 06:30:55;;;;;;;14.90;6.60;;;6.60;99.90;;;;;;5022788;28;20084;-69
2022/11/12 06:33:21;;;;;;;14.85;7.72;;;6.70;99.90;;;;;;5028705;28;20029;-69
2022/11/12 06:35:46;;;;;;;17.23;8.05;;;6.70;99.90;;;;;;5025325;28;20136;-70
2022/11/12 06:38:12;;;;;;;11.80;6.63;;;6.60;99.90;;;;;;5022623;28;20500;-68
2022/11/12 06:40:37;;;;;;;13.13;7.22;;;6.70;99.90;;;;;;5028032;28;20075;-72
2022/11/12 06:43:03;;;;;;;14.63;7.00;;;6.70;99.90;;;;;;5023158;28;20596;-68
2022/11/12 06:45:29;;;;;;;12.32;6.78;;;6.70;99.90;;;;;;5026637;28;20040;-68
2022/11/12 06:47:58;;;;;;;14.00;7.22;;;6.70;99.90;;;;;;5026815;28;20076;-69
2022/11/12 06:50:23;;;;;;;19.00;8.13;;;6.70;99.90;;;;;;5028078;28;20053;-68
2022/11/12 06:52:49;;;;;;;12.07;7.00;;;6.60;99.90;;;;;;5025369;28;20536;-68
2022/11/12 06:55:14;;;;;;;15.15;7.55;;;6.60;99.90;;;;;;5027651;28;20053;-68
2022/11/12 06:57:40;;;;;;;14.60;6.95;;;6.60;99.90;;;;;;5024988;28;20490;-68
2022/11/12 07:00:07;;;;;;;15.52;7.47;;;6.60;99.90;;;;;;5027237;28;20124;-67
2022/11/12 07:02:32;;;;;;;14.02;7.93;;;6.60;99.90;;;;;;5023560;28;20017;-67
2022/11/12 07:04:58;;;;;;;12.35;6.75;;;6.60;99.90;;;;;;5026280;28;20083;-68
2022/11/12 07:07:24;;;;;;;15.32;7.85;;;6.60;99.90;;;;;;5027490;28;20071;-70
2022/11/12 07:09:49;;;;;;;13.25;7.20;;;6.60;99.90;;;;;;5026057;28;20046;-70
2022/11/12 07:12:15;;;;;;;12.35;6.68;;;6.60;99.90;;;;;;5026518;28;20049;-70
2022/11/12 07:14:40;;;;;;;12.50;6.35;;;6.60;99.90;;;;;;5023427;28;20045;-71
2022/11/12 07:17:06;;;;;;;15.02;7.55;;;6.60;99.90;;;;;;5025093;28;20481;-70
2022/11/12 07:19:32;;;;;;;13.43;6.30;;;6.60;99.90;;;;;;5025411;28;20665;-69
2022/11/12 07:21:57;;;;;;;13.63;6.90;;;6.60;99.90;;;;;;5023848;28;20045;-69
2022/11/12 07:24:23;;;;;;;13.30;6.65;;;6.60;99.90;;;;;;5026683;28;20497;-70
2022/11/12 07:26:48;;;;;;;23.02;7.95;;;6.60;99.90;;;;;;5026624;28;20086;-69
2022/11/12 07:29:14;;;;;;;12.05;6.35;;;6.70;99.90;;;;;;5027453;28;20114;-69
2022/11/12 07:31:39;;;;;;;14.80;6.43;;;6.70;99.90;;;;;;5025055;28;20065;-70
2022/11/12 07:34:05;;;;;;;14.80;7.22;;;6.70;99.90;;;;;;5024716;28;20029;-70
2022/11/12 07:36:30;;;;;;;13.32;6.55;;;6.70;99.90;;;;;;5022066;28;20030;-69
2022/11/12 07:38:56;;;;;;;16.05;7.43;;;6.70;99.90;;;;;;5025091;28;20652;-69
2022/11/12 07:41:23;;;;;;;13.52;6.78;;;6.80;99.90;;;;;;5024672;28;20049;-69
2022/11/12 07:43:51;;;;;;;13.98;7.15;;;6.80;99.90;;;;;;5023596;28;20037;-70
2022/11/12 07:46:23;;;;;;;11.73;6.13;;;6.80;99.90;;;;;;5026100;28;20036;-68
2022/11/12 07:48:49;;;;;;;20.00;7.35;;;6.80;99.90;;;;;;5019910;28;20156;-71
2022/11/12 07:51:24;;;;;;;14.90;6.65;;;6.90;99.90;;;;;;5011916;28;21163;-69
2022/11/12 07:53:52;;;;;;;14.02;7.07;;;6.90;99.90;;;;;;5014720;28;20034;-69
2022/11/12 07:56:20;;;;;;;12.40;5.82;;;6.90;99.90;;;;;;5018636;28;20036;-71
2022/11/12 07:58:46;;;;;;;12.90;6.38;;;6.90;99.90;;;;;;5018266;28;20096;-69
2022/11/12 08:01:33;;;;;;;12.15;6.45;;;7.00;99.90;;;;;;5018337;28;20112;-69
2022/11/12 08:04:00;;;;;;;13.43;7.28;;;7.00;99.90;;;;;;5013997;28;20460;-69
2022/11/12 08:06:27;;;;;;;12.77;6.07;;;7.10;99.90;;;;;;5018851;28;20030;-67
2022/11/12 08:08:53;;;;;;;13.93;6.82;;;7.10;99.90;;;;;;5018865;28;20374;-69
2022/11/12 08:11:19;;;;;;;11.32;5.95;;;7.20;99.90;;;;;;5019401;28;20029;-68
2022/11/12 08:13:45;;;;;;;13.32;5.82;;;7.20;99.90;;;;;;5015810;28;20038;-68
2022/11/12 08:16:11;;;;;;;9.95;5.15;;;7.30;99.90;;;;;;5019315;28;20048;-69
2022/11/12 08:18:36;;;;;;;11.65;5.43;;;7.30;99.90;;;;;;5019670;28;20490;-69
2022/11/12 08:21:04;;;;;;;10.80;5.35;;;7.40;99.90;;;;;;5017599;28;20041;-69
2022/11/12 08:23:30;;;;;;;11.55;6.15;;;7.40;99.90;;;;;;5017058;28;20068;-68
2022/11/12 08:25:57;;;;;;;11.98;5.47;;;7.50;99.90;;;;;;5017479;28;20365;-69
2022/11/12 08:28:23;;;;;;;15.52;6.43;;;7.60;99.90;;;;;;5016445;28;20034;-69
2022/11/12 08:30:49;;;;;;;12.80;6.22;;;7.60;99.90;;;;;;5016755;28;20048;-69
2022/11/12 08:33:14;;;;;;;11.40;5.30;;;7.70;99.90;;;;;;5023263;28;20034;-69
2022/11/12 08:35:40;;;;;;;11.48;6.60;;;7.80;99.90;;;;;;5021475;28;20026;-70
2022/11/12 08:38:08;;;;;;;9.75;5.13;;;7.80;99.90;;;;;;5021694;28;20671;-69
2022/11/12 08:40:33;;;;;;;11.73;5.38;;;7.90;99.90;;;;;;5023337;28;20663;-69
2022/11/12 08:43:01;;;;;;;10.70;5.03;;;8.00;99.90;;;;;;5023975;28;20033;-68
2022/11/12 08:45:28;;;;;;;12.63;5.47;;;8.10;99.90;;;;;;5024292;28;20044;-69
2022/11/12 08:47:58;;;;;;;11.88;5.53;;;8.20;99.90;;;;;;5022504;28;20029;-69
2022/11/12 08:50:24;;;;;;;12.95;5.30;;;8.30;99.90;;;;;;5024225;28;20033;-67
2022/11/12 08:52:50;;;;;;;16.92;5.95;;;8.40;99.90;;;;;;5023231;28;20885;-69
2022/11/12 08:55:16;;;;;;;11.95;5.45;;;8.40;99.90;;;;;;5024529;28;20045;-70
2022/11/12 08:57:42;;;;;;;10.90;5.22;;;8.50;99.90;;;;;;5022256;28;20030;-69
2022/11/12 09:00:12;;;;;;;10.73;5.30;;;8.60;99.90;;;;;;5024071;28;20037;-70
2022/11/12 09:02:38;;;;;;;8.40;4.75;;;8.70;99.90;;;;;;5023961;28;20852;-69
2022/11/12 09:05:04;;;;;;;9.38;4.47;;;8.80;99.90;;;;;;5022525;28;20049;-71
2022/11/12 09:07:30;;;;;;;11.88;5.15;;;8.90;99.90;;;;;;5022468;28;20125;-68
2022/11/12 09:09:57;;;;;;;8.63;4.63;;;8.90;99.90;;;;;;5022096;28;20034;-68
2022/11/12 09:12:22;;;;;;;8.38;5.35;;;9.00;99.90;;;;;;5022265;28;20029;-69
2022/11/12 09:14:48;;;;;;;11.23;4.72;;;9.10;99.90;;;;;;5021434;28;20034;-68
2022/11/12 09:17:14;;;;;;;9.82;4.85;;;9.20;99.90;;;;;;5025923;28;20031;-69
2022/11/12 09:19:40;;;;;;;8.13;4.00;;;9.30;99.90;;;;;;5025031;28;20056;-73
2022/11/12 09:22:06;;;;;;;13.30;3.85;;;9.30;99.90;;;;;;5016027;28;20097;-69
2022/11/12 09:24:31;;;;;;;8.27;3.95;;;9.40;99.90;;;;;;5020380;28;20040;-69
2022/11/12 09:26:57;;;;;;;9.15;3.85;;;9.50;99.90;;;;;;5022329;28;20898;-68
2022/11/12 09:29:23;;;;;;;9.27;4.63;;;9.50;99.90;;;;;;5028153;28;20037;-67
2022/11/12 09:31:49;;;;;;;9.00;4.13;;;9.60;99.90;;;;;;5026167;28;20116;-69
2022/11/12 09:34:14;;;;;;;7.75;3.85;;;9.70;99.90;;;;;;5026032;28;20036;-68
2022/11/12 09:36:40;;;;;;;7.20;4.00;;;9.80;99.90;;;;;;5025827;28;20034;-72
2022/11/12 09:39:05;;;;;;;8.75;4.68;;;9.80;99.90;;;;;;5028258;28;20091;-68
2022/11/12 09:41:37;;;;;;;27.30;4.63;;;9.90;99.90;;;;;;5027049;28;20025;-71
2022/11/12 09:44:08;;;;;;;8.15;3.88;;;9.90;99.90;;;;;;5026498;28;20041;-69
2022/11/12 09:46:42;;;;;;;7.57;4.05;;;10.00;99.90;;;;;;5026380;28;20037;-72
2022/11/12 09:49:20;;;;;;;8.95;4.20;;;10.10;99.90;;;;;;5025371;28;20064;-69
2022/11/12 09:52:00;;;;;;;11.02;3.90;;;10.10;99.90;;;;;;5025458;28;20044;-70
2022/11/12 09:54:35;;;;;;;7.55;3.70;;;10.20;99.90;;;;;;5024334;28;20108;-68
2022/11/12 09:57:02;;;;;;;8.07;4.85;;;10.20;99.90;;;;;;5023628;28;20045;-68
2022/11/12 09:59:31;;;;;;;5.28;3.15;;;10.30;99.90;;;;;;5028441;28;20177;-69
2022/11/12 10:02:40;;;;;;;5.05;2.92;;;10.40;99.90;;;;;;5026372;28;20049;-68
2022/11/12 10:05:24;;;;;;;7.05;3.63;;;10.40;99.90;;;;;;5023842;28;20041;-69
2022/11/12 10:08:01;;;;;;;6.88;3.78;;;10.50;99.90;;;;;;5027412;28;20044;-68
2022/11/12 10:10:52;;;;;;;6.85;3.38;;;10.50;99.90;;;;;;5023631;28;20038;-69
2022/11/12 10:13:20;;;;;;;6.47;3.00;;;10.60;99.90;;;;;;5027295;28;20037;-70
2022/11/12 10:19:16;;;;;;;5.28;3.05;;;10.60;99.90;;;;;;5023130;28;20087;-70
2022/11/12 10:22:03;;;;;;;7.50;3.50;;;10.60;99.90;;;;;;5018950;28;20490;-71
2022/11/12 10:24:35;;;;;;;7.25;3.60;;;10.70;99.90;;;;;;5017185;28;20049;-69
2022/11/12 10:27:10;;;;;;;5.03;2.97;;;10.70;99.90;;;;;;5015392;28;20122;-70
2022/11/12 10:29:48;;;;;;;7.68;3.30;;;10.80;99.90;;;;;;5023988;28;20106;-70
2022/11/12 10:32:15;;;;;;;10.40;3.60;;;10.80;99.90;;;;;;5019947;28;20048;-69
2022/11/12 10:34:40;;;;;;;7.30;3.70;;;10.90;99.90;;;;;;5023620;28;20029;-71
2022/11/12 10:37:22;;;;;;;6.90;3.70;;;10.90;99.90;;;;;;5021709;28;20093;-69
2022/11/12 10:39:48;;;;;;;7.07;4.00;;;10.90;99.90;;;;;;5019175;28;20396;-69
2022/11/12 10:42:16;;;;;;;5.97;3.30;;;11.00;99.90;;;;;;5017343;28;20093;-69
2022/11/12 10:44:42;;;;;;;6.30;2.88;;;11.10;99.90;;;;;;5020203;28;20033;-68
2022/11/12 10:47:20;;;;;;;23.17;3.95;;;11.20;99.90;;;;;;5019849;28;20026;-70
2022/11/12 10:50:07;;;;;;;13.38;3.70;;;11.40;99.90;;;;;;5020828;28;20141;-71
2022/11/12 10:52:33;;;;;;;8.18;2.95;;;11.60;99.90;;;;;;5020550;28;20680;-68
2022/11/12 10:55:05;;;;;;;6.88;3.00;;;11.80;99.90;;;;;;5017649;28;20025;-68
2022/11/12 10:57:30;;;;;;;6.65;3.20;;;11.80;99.90;;;;;;5019917;28;20147;-69
2022/11/12 11:00:17;;;;;;;7.82;3.67;;;11.80;99.90;;;;;;5023484;28;20037;-71
2022/11/12 11:02:53;;;;;;;8.80;2.92;;;11.80;99.90;;;;;;5018257;28;20043;-68
2022/11/12 11:05:35;;;;;;;6.93;3.00;;;11.90;99.90;;;;;;5017958;28;20034;-70
2022/11/12 11:08:02;;;;;;;6.30;2.80;;;12.00;99.90;;;;;;5017079;28;20049;-70
2022/11/12 11:10:35;;;;;;;4.60;2.53;;;12.10;99.90;;;;;;5020267;28;20137;-69
2022/11/12 11:13:25;;;;;;;7.38;2.28;;;12.20;99.90;;;;;;5019810;28;20576;-69
2022/11/12 11:16:00;;;;;;;3.92;1.90;;;12.30;99.90;;;;;;5015272;28;20037;-70
2022/11/12 11:18:28;;;;;;;6.35;2.55;;;12.30;99.90;;;;;;5016183;28;20399;-70
2022/11/12 11:21:24;;;;;;;5.45;2.30;;;12.30;99.90;;;;;;5021723;28;20498;-69
2022/11/12 11:23:56;;;;;;;16.45;2.65;;;12.30;99.90;;;;;;5018823;28;20142;-69
2022/11/12 11:26:52;;;;;;;5.18;2.00;;;12.30;99.90;;;;;;5014366;28;20026;-71
2022/11/12 11:29:24;;;;;;;6.00;2.10;;;12.30;99.90;;;;;;5020167;28;20068;-71
2022/11/12 11:32:08;;;;;;;5.00;2.03;;;12.30;99.90;;;;;;5015230;28;20040;-69
2022/11/12 11:35:15;;;;;;;5.20;1.73;;;12.30;99.90;;;;;;5018917;28;20037;-68
2022/11/12 11:37:59;;;;;;;4.90;2.42;;;12.30;99.90;;;;;;5018529;28;20030;-71
2022/11/12 11:40:35;;;;;;;4.38;1.75;;;12.30;99.90;;;;;;5018288;28;20029;-69
2022/11/12 11:43:06;;;;;;;4.57;1.95;;;12.30;99.90;;;;;;5015469;28;20132;-69
2022/11/12 11:45:32;;;;;;;5.43;2.20;;;12.30;99.90;;;;;;5016230;28;20029;-70
2022/11/12 11:48:26;;;;;;;4.45;2.30;;;12.20;99.90;;;;;;5016881;28;20029;-70
2022/11/12 11:51:07;;;;;;;4.53;2.33;;;12.20;99.90;;;;;;5006075;28;20091;-69
2022/11/12 11:53:42;;;;;;;;;;;12.20;99.90;;;;;;5017701;28;20033;-70
2022/11/12 11:56:29;;;;;;;4.50;2.10;;;12.20;99.90;;;;;;5016198;28;19916;-70
2022/11/12 11:59:10;;;;;;;6.45;2.45;;;12.30;99.90;;;;;;5017543;28;20042;-69
2022/11/12 12:02:02;;;;;;;;;;;12.30;99.90;;;;;;5018615;28;20084;-69
2022/11/12 12:04:46;;;;;;;5.13;2.47;;;12.30;99.90;;;;;;5015073;28;19913;-69
2022/11/12 12:07:21;;;;;;;5.68;1.95;;;12.30;99.90;;;;;;5016648;28;20633;-69
2022/11/12 12:10:10;;;;;;;4.38;1.90;;;12.30;99.90;;;;;;5016031;28;20052;-70
2022/11/12 12:12:53;;;;;;;8.75;2.38;;;12.30;99.90;;;;;;5020518;28;20033;-68
2022/11/12 12:15:44;;;;;;;3.53;2.17;;;12.30;99.90;;;;;;5014818;28;20112;-70
2022/11/12 12:18:26;;;;;;;6.20;2.15;;;12.30;99.90;;;;;;5015724;28;20026;-69
2022/11/12 12:21:20;;;;;;;4.78;2.22;;;12.30;99.90;;;;;;5013854;28;20475;-69
2022/11/12 12:24:02;;;;;;;4.63;2.28;;;12.30;99.90;;;;;;5017506;28;20041;-69
2022/11/12 12:26:30;;;;;;;3.58;2.10;;;12.40;99.90;;;;;;5020031;28;20084;-70
2022/11/12 12:29:01;;;;;;;6.45;2.10;;;12.40;99.90;;;;;;5016561;28;20042;-70
2022/11/12 12:31:34;;;;;;;3.63;2.10;;;12.60;99.90;;;;;;5020035;28;20116;-70
2022/11/12 12:34:05;;;;;;;5.70;2.28;;;12.60;99.90;;;;;;5018420;28;20204;-69
2022/11/12 12:36:36;;;;;;;6.93;2.70;;;12.60;99.90;;;;;;5015736;28;20038;-70
2022/11/12 12:39:17;;;;;;;4.40;2.03;;;12.70;99.90;;;;;;5017336;28;20379;-70
2022/11/12 12:41:51;;;;;;;13.75;2.28;;;12.80;99.90;;;;;;5015871;28;20053;-70
2022/11/12 12:44:17;;;;;;;3.97;1.95;;;12.90;99.90;;;;;;5013996;28;20040;-71
2022/11/12 12:46:51;;;;;;;7.13;2.00;;;13.00;99.90;;;;;;5017732;28;20111;-70
2022/11/12 12:49:32;;;;;;;5.75;1.88;;;13.00;99.90;;;;;;5017427;28;20099;-70
2022/11/12 12:51:58;;;;;;;3.83;2.00;;;13.00;99.90;;;;;;5019598;28;20088;-67
2022/11/12 12:54:51;;;;;;;4.35;1.88;;;13.00;99.90;;;;;;5018781;28;20934;-70
2022/11/12 12:57:30;;;;;;;6.63;2.47;;;13.20;99.90;;;;;;5019618;28;20108;-75
2022/11/12 13:00:27;;;;;;;4.78;1.80;;;13.20;99.90;;;;;;5021726;28;20034;-68
2022/11/12 13:02:52;;;;;;;6.55;1.92;;;13.20;99.90;;;;;;5018741;28;20184;-69
2022/11/12 13:05:26;;;;;;;4.78;1.98;;;13.20;99.90;;;;;;5018938;28;20152;-70
2022/11/12 13:07:55;;;;;;;4.20;2.08;;;13.20;99.90;;;;;;5019222;28;20111;-70
2022/11/12 13:10:44;;;;;;;3.90;2.25;;;13.20;99.90;;;;;;5016946;28;20483;-69
2022/11/12 13:13:19;;;;;;;3.30;1.88;;;13.30;99.90;;;;;;5021715;28;20468;-70
2022/11/12 13:15:46;;;;;;;2.72;1.65;;;13.30;99.90;;;;;;5014519;28;20038;-70
2022/11/12 13:18:38;;;;;;;3.67;1.30;;;13.30;99.90;;;;;;5020097;28;20041;-69
2022/11/12 13:21:13;;;;;;;4.88;1.70;;;13.20;99.90;;;;;;5021070;28;20138;-68
2022/11/12 13:24:05;;;;;;;3.55;2.03;;;13.20;99.90;;;;;;5020720;28;20387;-69
2022/11/12 13:26:49;;;;;;;4.22;2.17;;;13.20;99.90;;;;;;5016733;28;20025;-68